sensor_id;sensor_type;location;lat;lon;timestamp;pressure;altitude;pressure_sealevel;temperature;humidity
53647;BME280;39550;52.230;5.194;2024-03-25T00:00:15;100664.75;;;7.59;85.14
53647;BME280;39550;52.230;5.194;2024-03-25T00:02:41;100675.91;;;7.64;84.52
53647;BME280;39550;52.230;5.194;2024-03-25T00:05:07;100673.31;;;7.61;85.72
53647;BME280;39550;52.230;5.194;2024-03-25T00:07:36;100663.88;;;7.60;84.97
53647;BME280;39550;52.230;5.194;2024-03-25T00:10:02;100671.69;;;7.66;85.04
53647;BME280;39550;52.230;5.194;2024-03-25T00:12:28;100667.34;;;7.62;84.51
53647;BME280;39550;52.230;5.194;2024-03-25T00:14:53;100672.47;;;7.62;85.02
53647;BME280;39550;52.230;5.194;2024-03-25T00:17:18;100673.31;;;7.61;84.79
53647;BME280;39550;52.230;5.194;2024-03-25T00:19:45;100671.56;;;7.60;85.25
53647;BME280;39550;52.230;5.194;2024-03-25T00:22:16;100673.31;;;7.61;84.93
53647;BME280;39550;52.230;5.194;2024-03-25T00:24:41;100675.88;;;7.62;84.67
53647;BME280;39550;52.230;5.194;2024-03-25T00:27:06;100662.16;;;7.59;85.19
53647;BME280;39550;52.230;5.194;2024-03-25T00:29:32;100670.78;;;7.64;85.06
53647;BME280;39550;52.230;5.194;2024-03-25T00:31:57;100658.75;;;7.60;84.79
53647;BME280;39550;52.230;5.194;2024-03-25T00:34:22;100660.47;;;7.61;84.60
53647;BME280;39550;52.230;5.194;2024-03-25T00:36:47;100657.91;;;7.61;84.68
53647;BME280;39550;52.230;5.194;2024-03-25T00:39:13;100653.63;;;7.60;84.80
53647;BME280;39550;52.230;5.194;2024-03-25T00:41:39;100650.22;;;7.61;85.03
53647;BME280;39550;52.230;5.194;2024-03-25T00:44:04;100647.63;;;7.58;84.81
53647;BME280;39550;52.230;5.194;2024-03-25T00:46:29;100652.84;;;7.64;84.53
53647;BME280;39550;52.230;5.194;2024-03-25T00:48:55;100641.66;;;7.59;84.78
53647;BME280;39550;52.230;5.194;2024-03-25T00:51:20;100652.78;;;7.61;84.15
53647;BME280;39550;52.230;5.194;2024-03-25T00:53:45;100641.56;;;7.54;84.95
53647;BME280;39550;52.230;5.194;2024-03-25T00:56:11;100645.03;;;7.56;85.12
53647;BME280;39550;52.230;5.194;2024-03-25T00:58:36;100647.63;;;7.58;84.67
53647;BME280;39550;52.230;5.194;2024-03-25T01:01:02;100659.66;;;7.62;84.78
53647;BME280;39550;52.230;5.194;2024-03-25T01:03:27;100658.72;;;7.58;84.70
53647;BME280;39550;52.230;5.194;2024-03-25T01:05:52;100663.03;;;7.59;84.46
53647;BME280;39550;52.230;5.194;2024-03-25T01:08:18;100663.03;;;7.61;84.63
53647;BME280;39550;52.230;5.194;2024-03-25T01:10:44;100658.72;;;7.58;84.72
53647;BME280;39550;52.230;5.194;2024-03-25T01:13:10;100659.59;;;7.59;84.71
53647;BME280;39550;52.230;5.194;2024-03-25T01:15:35;100673.34;;;7.64;85.14
53647;BME280;39550;52.230;5.194;2024-03-25T01:18:01;100659.59;;;7.59;84.73
53647;BME280;39550;52.230;5.194;2024-03-25T01:20:26;100657.88;;;7.58;84.97
53647;BME280;39550;52.230;5.194;2024-03-25T01:22:51;100666.44;;;7.60;84.05
53647;BME280;39550;52.230;5.194;2024-03-25T01:25:17;100662.16;;;7.59;84.78
53647;BME280;39550;52.230;5.194;2024-03-25T01:27:42;100671.56;;;7.60;84.27
53647;BME280;39550;52.230;5.194;2024-03-25T01:30:07;100661.25;;;7.57;84.47
53647;BME280;39550;52.230;5.194;2024-03-25T01:32:34;100673.31;;;7.61;83.63
53647;BME280;39550;52.230;5.194;2024-03-25T01:34:59;100670.69;;;7.58;84.13
53647;BME280;39550;52.230;5.194;2024-03-25T01:37:24;100660.47;;;7.59;84.66
53647;BME280;39550;52.230;5.194;2024-03-25T01:39:50;100668.97;;;7.58;84.26
53647;BME280;39550;52.230;5.194;2024-03-25T01:42:15;100657.81;;;7.55;84.33
53647;BME280;39550;52.230;5.194;2024-03-25T01:44:41;100668.94;;;7.55;84.17
53647;BME280;39550;52.230;5.194;2024-03-25T01:47:06;100660.41;;;7.56;84.41
53647;BME280;39550;52.230;5.194;2024-03-25T01:49:31;100660.41;;;7.56;84.02
53647;BME280;39550;52.230;5.194;2024-03-25T01:51:57;100661.31;;;7.60;84.32
53647;BME280;39550;52.230;5.194;2024-03-25T01:54:23;100657.81;;;7.55;84.43
53647;BME280;39550;52.230;5.194;2024-03-25T01:56:49;100666.41;;;7.57;84.36
53647;BME280;39550;52.230;5.194;2024-03-25T01:59:15;100679.28;;;7.61;84.13
53647;BME280;39550;52.230;5.194;2024-03-25T02:01:43;100666.34;;;7.54;84.35
53647;BME280;39550;52.230;5.194;2024-03-25T02:04:09;100681.72;;;7.54;84.10
53647;BME280;39550;52.230;5.194;2024-03-25T02:06:35;100676.69;;;7.58;84.32
53647;BME280;39550;52.230;5.194;2024-03-25T02:09:02;100673.25;;;7.58;84.21
53647;BME280;39550;52.230;5.194;2024-03-25T02:11:29;100685.25;;;7.59;84.43
53647;BME280;39550;52.230;5.194;2024-03-25T02:13:54;100669.78;;;7.56;83.94
53647;BME280;39550;52.230;5.194;2024-03-25T02:16:20;100671.50;;;7.55;83.96
53647;BME280;39550;52.230;5.194;2024-03-25T02:18:45;100686.91;;;7.57;83.83
53647;BME280;39550;52.230;5.194;2024-03-25T02:21:10;100690.38;;;7.59;83.94
53647;BME280;39550;52.230;5.194;2024-03-25T02:23:38;100679.16;;;7.54;84.46
53647;BME280;39550;52.230;5.194;2024-03-25T02:26:04;100686.91;;;7.57;84.00
53647;BME280;39550;52.230;5.194;2024-03-25T02:28:29;100686.03;;;7.55;84.40
53647;BME280;39550;52.230;5.194;2024-03-25T02:30:54;100686.88;;;7.54;84.29
53647;BME280;39550;52.230;5.194;2024-03-25T02:33:19;100688.59;;;7.55;83.87
53647;BME280;39550;52.230;5.194;2024-03-25T02:35:45;100668.00;;;7.52;84.52
53647;BME280;39550;52.230;5.194;2024-03-25T02:38:10;100686.91;;;7.57;83.90
53647;BME280;39550;52.230;5.194;2024-03-25T02:40:36;100686.91;;;7.57;84.64
53647;BME280;39550;52.230;5.194;2024-03-25T02:43:03;100678.34;;;7.55;83.63
53647;BME280;39550;52.230;5.194;2024-03-25T02:45:28;100680.00;;;7.53;84.12
53647;BME280;39550;52.230;5.194;2024-03-25T02:47:53;100681.72;;;7.54;84.12
53647;BME280;39550;52.230;5.194;2024-03-25T02:50:19;100674.81;;;7.49;84.18
53647;BME280;39550;52.230;5.194;2024-03-25T02:52:44;100676.59;;;7.52;83.77
53647;BME280;39550;52.230;5.194;2024-03-25T02:55:09;100661.13;;;7.49;83.55
53647;BME280;39550;52.230;5.194;2024-03-25T02:57:35;100666.22;;;7.47;83.65
53647;BME280;39550;52.230;5.194;2024-03-25T03:00:00;100666.25;;;7.49;83.51
53647;BME280;39550;52.230;5.194;2024-03-25T03:02:25;100667.16;;;7.51;83.50
53647;BME280;39550;52.230;5.194;2024-03-25T03:04:50;100668.88;;;7.50;84.09
53647;BME280;39550;52.230;5.194;2024-03-25T03:07:16;100668.09;;;7.55;83.78
53647;BME280;39550;52.230;5.194;2024-03-25T03:09:42;100654.31;;;7.49;83.59
53647;BME280;39550;52.230;5.194;2024-03-25T03:12:07;100651.72;;;7.48;83.25
53647;BME280;39550;52.230;5.194;2024-03-25T03:14:33;100649.13;;;7.46;83.38
53647;BME280;39550;52.230;5.194;2024-03-25T03:16:58;100659.50;;;7.53;83.75
53647;BME280;39550;52.230;5.194;2024-03-25T03:19:27;100653.53;;;7.54;83.82
53647;BME280;39550;52.230;5.194;2024-03-25T03:21:53;100644.03;;;7.48;84.00
53647;BME280;39550;52.230;5.194;2024-03-25T03:24:19;100650.00;;;7.47;83.50
53647;BME280;39550;52.230;5.194;2024-03-25T03:26:44;100640.59;;;7.47;83.64
53647;BME280;39550;52.230;5.194;2024-03-25T03:29:10;100647.47;;;7.50;83.22
53647;BME280;39550;52.230;5.194;2024-03-25T03:31:35;100640.66;;;7.50;84.22
53647;BME280;39550;52.230;5.194;2024-03-25T03:34:01;100635.47;;;7.47;83.50
53647;BME280;39550;52.230;5.194;2024-03-25T03:36:26;100643.22;;;7.50;83.22
53647;BME280;39550;52.230;5.194;2024-03-25T03:38:51;100646.56;;;7.46;83.59
53647;BME280;39550;52.230;5.194;2024-03-25T03:41:17;100650.91;;;7.50;83.67
53647;BME280;39550;52.230;5.194;2024-03-25T03:43:42;100650.84;;;7.47;83.45
53647;BME280;39550;52.230;5.194;2024-03-25T03:46:08;100653.50;;;7.52;84.06
53647;BME280;39550;52.230;5.194;2024-03-25T03:48:33;100642.28;;;7.45;83.36
53647;BME280;39550;52.230;5.194;2024-03-25T03:50:59;100644.00;;;7.46;83.48
53647;BME280;39550;52.230;5.194;2024-03-25T03:53:25;100639.75;;;7.48;83.40
53647;BME280;39550;52.230;5.194;2024-03-25T03:55:57;100642.44;;;7.55;83.39
53647;BME280;39550;52.230;5.194;2024-03-25T03:58:24;100638.97;;;7.53;82.97
53647;BME280;39550;52.230;5.194;2024-03-25T04:00:50;100628.72;;;7.53;82.97
53647;BME280;39550;52.230;5.194;2024-03-25T04:03:16;100635.59;;;7.54;82.82
53647;BME280;39550;52.230;5.194;2024-03-25T04:05:41;100625.16;;;7.44;82.55
53647;BME280;39550;52.230;5.194;2024-03-25T04:08:06;100640.66;;;7.50;83.26
53647;BME280;39550;52.230;5.194;2024-03-25T04:10:33;100627.72;;;7.44;82.66
53647;BME280;39550;52.230;5.194;2024-03-25T04:12:58;100627.72;;;7.44;82.32
53647;BME280;39550;52.230;5.194;2024-03-25T04:15:23;100625.13;;;7.41;82.11
53647;BME280;39550;52.230;5.194;2024-03-25T04:17:48;100641.44;;;7.46;82.44
53647;BME280;39550;52.230;5.194;2024-03-25T04:20:14;100644.00;;;7.46;82.15
53647;BME280;39550;52.230;5.194;2024-03-25T04:22:43;100643.13;;;7.46;82.82
53647;BME280;39550;52.230;5.194;2024-03-25T04:25:09;100626.78;;;7.39;82.24
53647;BME280;39550;52.230;5.194;2024-03-25T04:27:42;100634.53;;;7.42;82.44
53647;BME280;39550;52.230;5.194;2024-03-25T04:30:08;100642.28;;;7.45;82.36
53647;BME280;39550;52.230;5.194;2024-03-25T04:32:35;100647.41;;;7.45;82.26
53647;BME280;39550;52.230;5.194;2024-03-25T04:35:00;100637.16;;;7.45;81.82
53647;BME280;39550;52.230;5.194;2024-03-25T04:37:27;100642.22;;;7.42;82.43
53647;BME280;39550;52.230;5.194;2024-03-25T04:39:53;100641.38;;;7.43;81.96
53647;BME280;39550;52.230;5.194;2024-03-25T04:42:18;100631.84;;;7.36;81.82
53647;BME280;39550;52.230;5.194;2024-03-25T04:44:44;100634.44;;;7.38;81.72
53647;BME280;39550;52.230;5.194;2024-03-25T04:47:09;100640.53;;;7.43;81.88
53647;BME280;39550;52.230;5.194;2024-03-25T04:49:34;100637.88;;;7.38;81.71
53647;BME280;39550;52.230;5.194;2024-03-25T04:51:59;100636.19;;;7.40;82.06
53647;BME280;39550;52.230;5.194;2024-03-25T04:54:25;100624.31;;;7.45;81.55
53647;BME280;39550;52.230;5.194;2024-03-25T04:56:50;100629.47;;;7.45;81.38
53647;BME280;39550;52.230;5.194;2024-03-25T04:59:15;100631.25;;;7.49;81.62
53647;BME280;39550;52.230;5.194;2024-03-25T05:01:40;100639.81;;;7.52;81.56
53647;BME280;39550;52.230;5.194;2024-03-25T05:04:06;100632.88;;;7.46;81.86
53647;BME280;39550;52.230;5.194;2024-03-25T05:06:34;100636.22;;;7.42;81.58
53647;BME280;39550;52.230;5.194;2024-03-25T05:08:59;100637.91;;;7.40;81.50
53647;BME280;39550;52.230;5.194;2024-03-25T05:11:25;100638.75;;;7.40;81.19
53647;BME280;39550;52.230;5.194;2024-03-25T05:13:50;100649.13;;;7.46;81.57
53647;BME280;39550;52.230;5.194;2024-03-25T05:16:16;100643.88;;;7.40;81.87
53647;BME280;39550;52.230;5.194;2024-03-25T05:18:41;100655.03;;;7.42;81.44
53647;BME280;39550;52.230;5.194;2024-03-25T05:21:06;100643.94;;;7.43;80.92
53647;BME280;39550;52.230;5.194;2024-03-25T05:23:31;100646.38;;;7.36;81.45
53647;BME280;39550;52.230;5.194;2024-03-25T05:25:57;100664.41;;;7.40;81.11
53647;BME280;39550;52.230;5.194;2024-03-25T05:28:22;100667.78;;;7.39;81.77
53647;BME280;39550;52.230;5.194;2024-03-25T05:30:47;100660.88;;;7.35;81.71
53647;BME280;39550;52.230;5.194;2024-03-25T05:33:15;100666.94;;;7.39;81.62
53647;BME280;39550;52.230;5.194;2024-03-25T05:35:41;100649.69;;;7.28;82.20
53647;BME280;39550;52.230;5.194;2024-03-25T05:38:06;100666.09;;;7.38;81.80
53647;BME280;39550;52.230;5.194;2024-03-25T05:40:32;100676.34;;;7.40;81.67
53647;BME280;39550;52.230;5.194;2024-03-25T05:42:57;100657.44;;;7.33;81.50
53647;BME280;39550;52.230;5.194;2024-03-25T05:45:23;100662.75;;;7.42;81.98
53647;BME280;39550;52.230;5.194;2024-03-25T05:47:50;100661.81;;;7.40;81.52
53647;BME280;39550;52.230;5.194;2024-03-25T05:50:15;100645.44;;;7.32;81.62
53647;BME280;39550;52.230;5.194;2024-03-25T05:52:41;100625.63;;;7.22;81.77
53647;BME280;39550;52.230;5.194;2024-03-25T05:55:07;100647.19;;;7.33;81.63
53647;BME280;39550;52.230;5.194;2024-03-25T05:57:32;100661.78;;;7.37;81.62
53647;BME280;39550;52.230;5.194;2024-03-25T05:59:57;100663.53;;;7.40;81.94
53647;BME280;39550;52.230;5.194;2024-03-25T06:02:22;100658.31;;;7.35;82.28
53647;BME280;39550;52.230;5.194;2024-03-25T06:04:49;100651.47;;;7.32;82.05
53647;BME280;39550;52.230;5.194;2024-03-25T06:07:14;100635.16;;;7.29;82.61
53647;BME280;39550;52.230;5.194;2024-03-25T06:09:39;100655.84;;;7.38;82.02
53647;BME280;39550;52.230;5.194;2024-03-25T06:12:05;100646.28;;;7.31;82.35
53647;BME280;39550;52.230;5.194;2024-03-25T06:14:30;100636.09;;;7.34;82.30
53647;BME280;39550;52.230;5.194;2024-03-25T06:16:55;100650.59;;;7.33;82.04
53647;BME280;39550;52.230;5.194;2024-03-25T06:19:21;100655.84;;;7.38;82.20
53647;BME280;39550;52.230;5.194;2024-03-25T06:21:46;100641.13;;;7.29;81.64
53647;BME280;39550;52.230;5.194;2024-03-25T06:24:11;100643.66;;;7.28;81.78
53647;BME280;39550;52.230;5.194;2024-03-25T06:26:37;100648.84;;;7.31;82.33
53647;BME280;39550;52.230;5.194;2024-03-25T06:29:02;100638.53;;;7.28;81.66
53647;BME280;39550;52.230;5.194;2024-03-25T06:31:28;100659.22;;;7.37;81.93
53647;BME280;39550;52.230;5.194;2024-03-25T06:34:11;100638.59;;;7.31;82.13
53647;BME280;39550;52.230;5.194;2024-03-25T06:36:42;100623.06;;;7.22;81.68
53647;BME280;39550;52.230;5.194;2024-03-25T06:39:07;100629.97;;;7.26;82.37
53647;BME280;39550;52.230;5.194;2024-03-25T06:41:32;100641.25;;;7.36;81.63
53647;BME280;39550;52.230;5.194;2024-03-25T06:43:58;100631.69;;;7.27;81.81
53647;BME280;39550;52.230;5.194;2024-03-25T06:46:23;100635.13;;;7.27;82.28
53647;BME280;39550;52.230;5.194;2024-03-25T06:48:48;100644.66;;;7.36;81.57
53647;BME280;39550;52.230;5.194;2024-03-25T06:51:14;100635.16;;;7.29;82.11
53647;BME280;39550;52.230;5.194;2024-03-25T06:53:39;100633.41;;;7.28;81.84
53647;BME280;39550;52.230;5.194;2024-03-25T06:56:04;100640.31;;;7.32;81.81
53647;BME280;39550;52.230;5.194;2024-03-25T06:58:30;100630.94;;;7.32;81.64
53647;BME280;39550;52.230;5.194;2024-03-25T07:00:56;100649.81;;;7.38;82.25
53647;BME280;39550;52.230;5.194;2024-03-25T07:03:23;100645.56;;;7.38;82.79
53647;BME280;39550;52.230;5.194;2024-03-25T07:05:50;100637.69;;;7.27;81.98
53647;BME280;39550;52.230;5.194;2024-03-25T07:08:20;100652.25;;;7.30;82.18
53647;BME280;39550;52.230;5.194;2024-03-25T07:10:46;100635.94;;;7.25;82.10
53647;BME280;39550;52.230;5.194;2024-03-25T07:13:11;100635.94;;;7.25;81.88
53647;BME280;39550;52.230;5.194;2024-03-25T07:15:38;100635.09;;;7.26;81.83
53647;BME280;39550;52.230;5.194;2024-03-25T07:18:04;100637.63;;;7.24;81.70
53647;BME280;39550;52.230;5.194;2024-03-25T07:20:30;100638.50;;;7.25;81.95
53647;BME280;39550;52.230;5.194;2024-03-25T07:22:56;100625.53;;;7.17;81.82
53647;BME280;39550;52.230;5.194;2024-03-25T07:25:25;100638.50;;;7.25;82.03
53647;BME280;39550;52.230;5.194;2024-03-25T07:27:51;100652.31;;;7.33;81.78
53647;BME280;39550;52.230;5.194;2024-03-25T07:30:18;100636.75;;;7.24;82.25
53647;BME280;39550;52.230;5.194;2024-03-25T07:32:43;100636.75;;;7.24;82.50
53647;BME280;39550;52.230;5.194;2024-03-25T07:35:10;100642.81;;;7.27;82.51
53647;BME280;39550;52.230;5.194;2024-03-25T07:37:36;100635.88;;;7.22;82.40
53647;BME280;39550;52.230;5.194;2024-03-25T07:40:02;100658.38;;;7.37;82.48
53647;BME280;39550;52.230;5.194;2024-03-25T07:42:29;100641.13;;;7.29;81.95
53647;BME280;39550;52.230;5.194;2024-03-25T07:44:54;100654.06;;;7.36;82.24
53647;BME280;39550;52.230;5.194;2024-03-25T07:47:19;100650.56;;;7.32;82.40
53647;BME280;39550;52.230;5.194;2024-03-25T07:49:44;100654.91;;;7.35;82.39
53647;BME280;39550;52.230;5.194;2024-03-25T07:52:10;100656.63;;;7.36;82.79
53647;BME280;39550;52.230;5.194;2024-03-25T07:54:35;100653.19;;;7.35;82.10
53647;BME280;39550;52.230;5.194;2024-03-25T07:57:03;100645.34;;;7.26;82.01
53647;BME280;39550;52.230;5.194;2024-03-25T07:59:29;100653.13;;;7.32;82.87
53647;BME280;39550;52.230;5.194;2024-03-25T08:01:54;100662.63;;;7.38;82.88
53647;BME280;39550;52.230;5.194;2024-03-25T08:04:19;100639.38;;;7.27;82.56
53647;BME280;39550;52.230;5.194;2024-03-25T08:06:44;100641.94;;;7.27;83.04
53647;BME280;39550;52.230;5.194;2024-03-25T08:09:10;100651.41;;;7.31;82.19
53647;BME280;39550;52.230;5.194;2024-03-25T08:11:35;100663.53;;;7.40;82.86
53647;BME280;39550;52.230;5.194;2024-03-25T08:14:00;100668.66;;;7.40;82.37
53647;BME280;39550;52.230;5.194;2024-03-25T08:16:26;100669.44;;;7.34;83.11
53647;BME280;39550;52.230;5.194;2024-03-25T08:18:51;100665.09;;;7.31;82.94
53647;BME280;39550;52.230;5.194;2024-03-25T08:21:17;100682.34;;;7.40;83.04
53647;BME280;39550;52.230;5.194;2024-03-25T08:23:45;100665.94;;;7.32;82.49
53647;BME280;39550;52.230;5.194;2024-03-25T08:26:11;100659.00;;;7.25;82.59
53647;BME280;39550;52.230;5.194;2024-03-25T08:28:36;100688.28;;;7.39;82.98
53647;BME280;39550;52.230;5.194;2024-03-25T08:31:02;100666.78;;;7.31;82.70
53647;BME280;39550;52.230;5.194;2024-03-25T08:33:27;100665.94;;;7.32;83.24
53647;BME280;39550;52.230;5.194;2024-03-25T08:35:53;100676.34;;;7.38;82.62
53647;BME280;39550;52.230;5.194;2024-03-25T08:38:19;100683.16;;;7.39;83.48
53647;BME280;39550;52.230;5.194;2024-03-25T08:40:44;100672.88;;;7.36;83.51
53647;BME280;39550;52.230;5.194;2024-03-25T08:43:09;100664.22;;;7.31;82.86
53647;BME280;39550;52.230;5.194;2024-03-25T08:45:34;100667.78;;;7.39;82.95
53647;BME280;39550;52.230;5.194;2024-03-25T08:48:00;100667.75;;;7.36;83.25
53647;BME280;39550;52.230;5.194;2024-03-25T08:50:25;100671.22;;;7.40;82.96
53647;BME280;39550;52.230;5.194;2024-03-25T08:52:50;100658.25;;;7.32;82.95
53647;BME280;39550;52.230;5.194;2024-03-25T08:55:16;100655.69;;;7.32;83.30
53647;BME280;39550;52.230;5.194;2024-03-25T08:57:41;100660.81;;;7.32;83.09
53647;BME280;39550;52.230;5.194;2024-03-25T09:00:06;100660.06;;;7.38;83.00
53647;BME280;39550;52.230;5.194;2024-03-25T09:02:38;100651.41;;;7.31;83.57
53647;BME280;39550;52.230;5.194;2024-03-25T09:05:03;100655.84;;;7.38;83.31
53647;BME280;39550;52.230;5.194;2024-03-25T09:07:33;100657.53;;;7.39;83.55
53647;BME280;39550;52.230;5.194;2024-03-25T09:09:58;100651.50;;;7.36;83.17
53647;BME280;39550;52.230;5.194;2024-03-25T09:12:42;100635.94;;;7.25;83.41
53647;BME280;39550;52.230;5.194;2024-03-25T09:15:07;100641.16;;;7.31;83.38
53647;BME280;39550;52.230;5.194;2024-03-25T09:17:34;100655.84;;;7.38;83.37
53647;BME280;39550;52.230;5.194;2024-03-25T09:20:00;100635.16;;;7.29;83.11
53647;BME280;39550;52.230;5.194;2024-03-25T09:22:26;100654.13;;;7.39;83.26
53647;BME280;39550;52.230;5.194;2024-03-25T09:24:52;100634.38;;;7.33;83.25
53647;BME280;39550;52.230;5.194;2024-03-25T09:27:17;100638.59;;;7.31;84.02
53647;BME280;39550;52.230;5.194;2024-03-25T09:29:42;100641.31;;;7.39;83.87
53647;BME280;39550;52.230;5.194;2024-03-25T09:32:08;100628.34;;;7.31;83.79
53647;BME280;39550;52.230;5.194;2024-03-25T09:34:33;100619.84;;;7.33;83.62
53647;BME280;39550;52.230;5.194;2024-03-25T09:36:59;100629.25;;;7.35;83.26
53647;BME280;39550;52.230;5.194;2024-03-25T09:39:25;100617.19;;;7.27;84.00
53647;BME280;39550;52.230;5.194;2024-03-25T09:41:53;100639.59;;;7.39;84.00
53647;BME280;39550;52.230;5.194;2024-03-25T09:44:20;100635.31;;;7.38;84.18
53647;BME280;39550;52.230;5.194;2024-03-25T09:46:47;100612.09;;;7.29;83.87
53647;BME280;39550;52.230;5.194;2024-03-25T09:49:12;100628.47;;;7.37;84.46
53647;BME280;39550;52.230;5.194;2024-03-25T09:51:38;100607.78;;;7.28;84.20
53647;BME280;39550;52.230;5.194;2024-03-25T09:54:03;100606.94;;;7.27;84.24
53647;BME280;39550;52.230;5.194;2024-03-25T09:56:29;100624.22;;;7.39;83.68
53647;BME280;39550;52.230;5.194;2024-03-25T09:58:55;100596.66;;;7.26;83.68
53647;BME280;39550;52.230;5.194;2024-03-25T10:01:21;100612.13;;;7.32;84.00
53647;BME280;39550;52.230;5.194;2024-03-25T10:03:46;100617.28;;;7.35;84.10
53647;BME280;39550;52.230;5.194;2024-03-25T10:06:12;100611.38;;;7.38;83.93
53647;BME280;39550;52.230;5.194;2024-03-25T10:08:38;100596.69;;;7.29;84.03
53647;BME280;39550;52.230;5.194;2024-03-25T10:11:03;100608.81;;;7.39;83.86
53647;BME280;39550;52.230;5.194;2024-03-25T10:13:28;100590.78;;;7.33;84.20
53647;BME280;39550;52.230;5.194;2024-03-25T10:15:55;100583.84;;;7.26;84.04
53647;BME280;39550;52.230;5.194;2024-03-25T10:18:20;100599.34;;;7.35;83.73
53647;BME280;39550;52.230;5.194;2024-03-25T10:20:52;100595.16;;;7.39;83.77
53647;BME280;39550;52.230;5.194;2024-03-25T10:23:23;100584.84;;;7.36;84.47
53647;BME280;39550;52.230;5.194;2024-03-25T10:25:51;100594.31;;;7.38;84.35
53647;BME280;39550;52.230;5.194;2024-03-25T10:28:17;100586.53;;;7.35;84.63
53647;BME280;39550;52.230;5.194;2024-03-25T10:30:42;100580.53;;;7.33;84.62
53647;BME280;39550;52.230;5.194;2024-03-25T10:33:08;100585.72;;;7.36;84.77
53647;BME280;39550;52.230;5.194;2024-03-25T10:35:36;100564.22;;;7.29;84.11
53647;BME280;39550;52.230;5.194;2024-03-25T10:38:10;100566.81;;;7.31;84.70
53647;BME280;39550;52.230;5.194;2024-03-25T10:40:37;100562.47;;;7.27;84.55
53647;BME280;39550;52.230;5.194;2024-03-25T10:43:10;100563.44;;;7.32;84.75
53647;BME280;39550;52.230;5.194;2024-03-25T10:45:40;100557.41;;;7.28;84.67
53647;BME280;39550;52.230;5.194;2024-03-25T10:50:43;100573.78;;;7.38;84.59
53647;BME280;39550;52.230;5.194;2024-03-25T10:53:10;100558.41;;;7.38;84.89
53647;BME280;39550;52.230;5.194;2024-03-25T10:55:37;100534.25;;;7.24;84.89
53647;BME280;39550;52.230;5.194;2024-03-25T10:58:04;100559.22;;;7.36;84.23
53647;BME280;39550;52.230;5.194;2024-03-25T11:00:30;100563.53;;;7.38;84.84
53647;BME280;39550;52.230;5.194;2024-03-25T11:02:55;100549.88;;;7.39;84.42
53647;BME280;39550;52.230;5.194;2024-03-25T11:05:21;100537.75;;;7.29;84.96
53647;BME280;39550;52.230;5.194;2024-03-25T11:07:47;100551.56;;;7.37;84.94
53647;BME280;39550;52.230;5.194;2024-03-25T11:10:13;100557.56;;;7.39;84.75
53647;BME280;39550;52.230;5.194;2024-03-25T11:12:40;100525.81;;;7.31;84.34
53647;BME280;39550;52.230;5.194;2024-03-25T11:15:07;100541.34;;;7.40;84.91
53647;BME280;39550;52.230;5.194;2024-03-25T11:17:33;100537.03;;;7.39;84.18
53647;BME280;39550;52.230;5.194;2024-03-25T11:20:12;100534.47;;;7.39;84.83
53647;BME280;39550;52.230;5.194;2024-03-25T11:22:51;100519.84;;;7.32;85.18
53647;BME280;39550;52.230;5.194;2024-03-25T11:25:17;100520.75;;;7.34;84.81
53647;BME280;39550;52.230;5.194;2024-03-25T11:27:44;100524.22;;;7.39;84.60
53647;BME280;39550;52.230;5.194;2024-03-25T11:30:10;100510.38;;;7.28;85.01
53647;BME280;39550;52.230;5.194;2024-03-25T11:32:46;100506.16;;;7.30;84.74
53647;BME280;39550;52.230;5.194;2024-03-25T11:35:12;100479.44;;;7.15;85.04
53647;BME280;39550;52.230;5.194;2024-03-25T11:37:40;100498.50;;;7.33;85.42
53647;BME280;39550;52.230;5.194;2024-03-25T11:40:06;100483.03;;;7.27;85.20
53647;BME280;39550;52.230;5.194;2024-03-25T11:42:32;100487.34;;;7.29;84.83
53647;BME280;39550;52.230;5.194;2024-03-25T11:44:59;100496.00;;;7.38;85.45
53647;BME280;39550;52.230;5.194;2024-03-25T11:47:25;100487.47;;;7.37;85.29
53647;BME280;39550;52.230;5.194;2024-03-25T11:49:51;100492.59;;;7.37;84.68
53647;BME280;39550;52.230;5.194;2024-03-25T11:52:16;100491.81;;;7.41;84.86
53647;BME280;39550;52.230;5.194;2024-03-25T11:54:42;100477.25;;;7.39;85.30
53647;BME280;39550;52.230;5.194;2024-03-25T11:57:08;100470.34;;;7.35;85.27
53647;BME280;39550;52.230;5.194;2024-03-25T11:59:33;100471.16;;;7.32;85.10
53647;BME280;39550;52.230;5.194;2024-03-25T12:01:59;100480.63;;;7.38;85.39
53647;BME280;39550;52.230;5.194;2024-03-25T12:04:24;100474.69;;;7.40;85.51
53647;BME280;39550;52.230;5.194;2024-03-25T12:06:49;100462.66;;;7.36;85.64
53647;BME280;39550;52.230;5.194;2024-03-25T12:09:14;100469.56;;;7.40;85.15
53647;BME280;39550;52.230;5.194;2024-03-25T12:11:59;100458.41;;;7.37;85.05
53647;BME280;39550;52.230;5.194;2024-03-25T12:14:25;100450.75;;;7.38;86.01
53647;BME280;39550;52.230;5.194;2024-03-25T12:16:54;100455.91;;;7.41;85.20
53647;BME280;39550;52.230;5.194;2024-03-25T12:19:20;100444.75;;;7.39;85.63
53647;BME280;39550;52.230;5.194;2024-03-25T12:21:45;100442.28;;;7.42;84.82
53647;BME280;39550;52.230;5.194;2024-03-25T12:24:11;100440.56;;;7.44;84.74
53647;BME280;39550;52.230;5.194;2024-03-25T12:26:37;100445.72;;;7.47;84.67
53647;BME280;39550;52.230;5.194;2024-03-25T12:29:02;100444.03;;;7.46;85.14
53647;BME280;39550;52.230;5.194;2024-03-25T12:31:29;100446.59;;;7.45;85.08
53647;BME280;39550;52.230;5.194;2024-03-25T12:33:55;100437.13;;;7.41;84.70
53647;BME280;39550;52.230;5.194;2024-03-25T12:36:20;100445.72;;;7.47;84.97
53647;BME280;39550;52.230;5.194;2024-03-25T12:38:54;100432.00;;;7.42;84.93
53647;BME280;39550;52.230;5.194;2024-03-25T12:41:22;100444.06;;;7.49;85.30
53647;BME280;39550;52.230;5.194;2024-03-25T12:43:50;100425.19;;;7.44;85.00
53647;BME280;39550;52.230;5.194;2024-03-25T12:46:15;100441.53;;;7.51;85.28
53647;BME280;39550;52.230;5.194;2024-03-25T12:48:40;100430.34;;;7.47;85.68
53647;BME280;39550;52.230;5.194;2024-03-25T12:51:14;100427.84;;;7.50;85.56
53647;BME280;39550;52.230;5.194;2024-03-25T12:53:40;100426.97;;;7.48;85.65
53647;BME280;39550;52.230;5.194;2024-03-25T12:56:06;100418.41;;;7.48;85.04